Time;durP1;ratioP1;P1;durP2;ratioP2;P2;SDS_P1;SDS_P2;PMS_P1;PMS_P2;Temp;Humidity;BMP_temperature;BMP_pressure;BME280_temperature;BME280_humidity;BME280_pressure;Samples;Min_cycle;Max_cycle;Signal;HPM_P1;HPM_P2
2023/01/02 00:01:38;;;;;;;1.33;0.93;;;;;;;-145.63;100.00;61273.97;4781999;30;20187;-67
2023/01/02 00:04:04;;;;;;;0.80;0.80;;;;;;;-145.63;100.00;61273.97;4781931;30;20208;-68
2023/01/02 00:06:36;;;;;;;2.53;0.98;;;;;;;-145.63;100.00;61273.97;4781811;30;20039;-67
2023/01/02 00:09:03;;;;;;;1.33;0.82;;;;;;;-145.63;100.00;61273.97;4781905;30;20323;-67
2023/01/02 00:11:29;;;;;;;1.30;1.05;;;;;;;-145.63;100.00;61273.97;4782123;30;20036;-67
2023/01/02 00:13:55;;;;;;;0.80;0.73;;;;;;;-145.63;100.00;61273.97;4781882;30;20031;-67
2023/01/02 00:16:20;;;;;;;0.70;0.70;;;;;;;-145.63;100.00;61273.97;4781954;30;20314;-67
2023/01/02 00:18:46;;;;;;;0.70;0.70;;;;;;;-145.63;100.00;61273.97;4781919;30;20050;-67
2023/01/02 00:21:11;;;;;;;0.75;0.75;;;;;;;-145.63;100.00;61273.97;4781689;30;20046;-68
2023/01/02 00:23:37;;;;;;;0.70;0.70;;;;;;;-145.63;100.00;61273.97;4810060;29;20223;-67
2023/01/02 00:26:03;;;;;;;0.70;0.70;;;;;;;-145.63;100.00;61273.97;4783157;29;20063;-67
2023/01/02 00:28:29;;;;;;;1.20;0.60;;;;;;;-145.63;100.00;61273.97;4781980;30;20367;-67
2023/01/02 00:30:55;;;;;;;0.60;0.60;;;;;;;-145.63;100.00;61273.97;4781948;30;20046;-67
2023/01/02 00:33:20;;;;;;;0.80;0.47;;;;;;;-145.63;100.00;61273.97;4782029;30;20040;-67
2023/01/02 00:35:46;;;;;;;0.50;0.50;;;;;;;-145.63;100.00;61273.97;4780428;30;20038;-67
2023/01/02 00:38:11;;;;;;;0.70;0.70;;;;;;;-145.63;100.00;61273.97;4781274;30;20035;-67
2023/01/02 00:40:37;;;;;;;0.52;0.52;;;;;;;-145.63;100.00;61273.97;4781626;30;20076;-66
2023/01/02 00:43:03;;;;;;;0.52;0.52;;;;;;;-145.63;100.00;61273.97;4781539;30;20036;-66
2023/01/02 00:45:29;;;;;;;1.20;0.57;;;;;;;-145.63;100.00;61273.97;4781526;30;20234;-65
2023/01/02 00:47:54;;;;;;;0.60;0.60;;;;;;;-145.63;100.00;61273.97;4781326;30;20391;-65
2023/01/02 00:50:20;;;;;;;0.75;0.75;;;;;;;-145.63;100.00;61273.97;4781345;30;20038;-66
2023/01/02 00:52:45;;;;;;;1.45;0.73;;;;;;;-145.63;100.00;61273.97;4782594;30;20335;-66
2023/01/02 00:55:11;;;;;;;0.98;0.80;;;;;;;-145.63;100.00;61273.97;4799311;29;20030;-66
2023/01/02 00:57:38;;;;;;;0.80;0.80;;;;;;;-145.63;100.00;61273.97;4782345;29;20062;-65
2023/01/02 01:00:05;;;;;;;1.00;0.80;;;;;;;-145.63;100.00;61273.97;4780917;30;20027;-65
2023/01/02 01:02:30;;;;;;;0.70;0.70;;;;;;;-145.63;100.00;61273.97;4780828;30;20047;-65
2023/01/02 01:04:56;;;;;;;2.22;0.80;;;;;;;-145.63;100.00;61273.97;4780887;30;20036;-66
2023/01/02 01:07:21;;;;;;;2.63;0.70;;;;;;;-145.63;100.00;61273.97;4780584;30;20040;-66
2023/01/02 01:09:47;;;;;;;0.90;0.90;;;;;;;-145.63;100.00;61273.97;4781102;30;20099;-67
2023/01/02 01:12:12;;;;;;;0.82;0.70;;;;;;;-145.63;100.00;61273.97;4794651;30;20073;-66
2023/01/02 01:14:38;;;;;;;0.80;0.80;;;;;;;-145.63;100.00;61273.97;4781109;30;20027;-66
2023/01/02 01:17:04;;;;;;;1.17;0.80;;;;;;;-145.63;100.00;61273.97;4781060;30;20037;-67
2023/01/02 01:19:31;;;;;;;1.15;0.80;;;;;;;-145.63;100.00;61273.97;4781091;30;20225;-66
2023/01/02 01:21:57;;;;;;;0.80;0.80;;;;;;;-145.63;100.00;61273.97;4782536;30;20380;-67
2023/01/02 01:24:22;;;;;;;1.42;0.80;;;;;;;-145.63;100.00;61273.97;4795179;30;20053;-66
2023/01/02 01:26:48;;;;;;;0.90;0.90;;;;;;;-145.63;100.00;61273.97;4780805;30;20032;-67
2023/01/02 01:29:13;;;;;;;0.77;0.77;;;;;;;-145.63;100.00;61273.97;4780606;30;20197;-67
2023/01/02 01:31:39;;;;;;;1.00;0.80;;;;;;;-145.63;100.00;61273.97;4780827;30;20193;-67
2023/01/02 01:34:05;;;;;;;1.00;1.00;;;;;;;-145.63;100.00;61273.97;4780346;30;20058;-67
2023/01/02 01:36:30;;;;;;;1.08;1.08;;;;;;;-145.63;100.00;61273.97;4780651;30;20043;-66
2023/01/02 01:38:56;;;;;;;1.27;1.00;;;;;;;-145.63;100.00;61273.97;4779376;30;20043;-66
2023/01/02 01:41:24;;;;;;;1.30;1.20;;;;;;;-145.63;100.00;61273.97;4780671;30;20039;-66
2023/01/02 01:43:53;;;;;;;1.17;1.17;;;;;;;-145.63;100.00;61273.97;4780439;30;20211;-66
2023/01/02 01:46:44;;;;;;;1.20;1.10;;;;;;;-145.63;100.00;61273.97;4780695;30;20036;-66
2023/01/02 01:49:15;;;;;;;1.13;1.10;;;;;;;-145.63;100.00;61273.97;4779701;30;20055;-66
2023/01/02 01:51:54;;;;;;;1.52;1.42;;;;;;;-145.63;100.00;61273.97;4780504;30;20054;-68
2023/01/02 01:54:26;;;;;;;1.90;1.80;;;;;;;-145.63;100.00;61273.97;4792914;30;20394;-65
2023/01/02 01:56:55;;;;;;;;;;;;;;;-145.63;100.00;61273.97;4798999;29;20264;-66
2023/01/02 01:59:20;;;;;;;1.65;1.52;;;;;;;-145.63;100.00;61273.97;4762569;30;20146;-67
2023/01/02 02:01:48;;;;;;;1.77;1.67;;;;;;;-145.63;100.00;61273.97;4776246;30;20069;-66
2023/01/02 02:04:16;;;;;;;1.58;1.48;;;;;;;-145.63;100.00;61273.97;4780042;30;20028;-67
2023/01/02 02:06:42;;;;;;;1.45;1.35;;;;;;;-145.63;100.00;61273.97;4780408;30;20300;-66
2023/01/02 02:09:44;;;;;;;3.28;1.40;;;;;;;-145.63;100.00;61273.97;4779989;30;20039;-67
2023/01/02 02:12:11;;;;;;;2.55;1.60;;;;;;;-145.63;100.00;61273.97;4773581;30;20111;-67
2023/01/02 02:14:37;;;;;;;1.50;1.40;;;;;;;-145.63;100.00;61273.97;4780239;30;20324;-67
2023/01/02 02:17:44;;;;;;;1.30;1.20;;;;;;;-145.63;100.00;61273.97;4761563;30;20029;-68
2023/01/02 02:20:28;;;;;;;1.27;1.00;;;;;;;-145.63;100.00;61273.97;4778488;30;20084;-68
2023/01/02 02:23:06;;;;;;;1.55;1.30;;;;;;;-145.63;100.00;61273.97;4788771;30;20076;-67
2023/01/02 02:26:26;;;;;;;1.30;1.20;;;;;;;-145.63;100.00;61273.97;4785043;29;20055;-67
2023/01/02 02:29:00;;;;;;;1.80;1.27;;;;;;;-145.63;100.00;61273.97;4725391;30;20040;-65
2023/01/02 02:31:33;;;;;;;1.70;1.30;;;;;;;-145.63;100.00;61273.97;4772020;30;20150;-65
2023/01/02 02:34:15;;;;;;;1.48;1.00;;;;;;;-145.63;100.00;61273.97;4780022;30;20249;-66
2023/01/02 02:36:57;;;;;;;1.15;1.08;;;;;;;-145.63;100.00;61273.97;4780133;30;20052;-66
2023/01/02 02:39:35;;;;;;;1.25;0.93;;;;;;;-145.63;100.00;61273.97;4779850;30;20099;-66
2023/01/02 02:42:22;;;;;;;1.50;0.90;;;;;;;-145.63;100.00;61273.97;4779788;30;20066;-66
2023/01/02 02:45:15;;;;;;;0.93;0.90;;;;;;;-145.63;100.00;61273.97;4779886;30;20048;-66
2023/01/02 02:47:52;;;;;;;2.70;1.08;;;;;;;-145.63;100.00;61273.97;4762272;30;20046;-65
2023/01/02 02:50:41;;;;;;;1.10;0.82;;;;;;;-145.63;100.00;61273.97;4779085;30;20353;-66
2023/01/02 02:53:22;;;;;;;1.10;0.80;;;;;;;-145.63;100.00;61273.97;4783337;30;20081;-65
2023/01/02 02:55:52;;;;;;;0.85;0.70;;;;;;;-145.63;100.00;61273.97;4797819;29;20383;-65
2023/01/02 02:58:20;;;;;;;1.13;1.00;;;;;;;-145.63;100.00;61273.97;4787686;29;20052;-65
2023/01/02 03:00:46;;;;;;;0.82;0.82;;;;;;;-145.63;100.00;61273.97;4781687;30;20042;-66
2023/01/02 03:03:22;;;;;;;0.80;0.80;;;;;;;-145.63;100.00;61273.97;4783173;30;20059;-66
2023/01/02 03:05:51;;;;;;;0.73;0.73;;;;;;;-145.63;100.00;61273.97;4783371;30;20035;-65
2023/01/02 03:08:27;;;;;;;2.35;0.80;;;;;;;-145.63;100.00;61273.97;4783004;30;20047;-65
2023/01/02 03:10:58;;;;;;;1.10;0.80;;;;;;;-145.63;100.00;61273.97;4783092;30;20043;-65
2023/01/02 03:13:39;;;;;;;0.80;0.80;;;;;;;-145.63;100.00;61273.97;4782964;30;20090;-66
2023/01/02 03:16:37;;;;;;;0.52;0.52;;;;;;;-145.63;100.00;61273.97;4782754;30;20040;-67
2023/01/02 03:19:30;;;;;;;1.50;0.77;;;;;;;-145.63;100.00;61273.97;4782428;30;20047;-68
2023/01/02 03:21:55;;;;;;;0.80;0.60;;;;;;;-145.63;100.00;61273.97;4783852;30;20032;-67
2023/01/02 03:24:24;;;;;;;0.68;0.50;;;;;;;-145.63;100.00;61273.97;4785196;29;20097;-67
2023/01/02 03:27:01;;;;;;;0.82;0.63;;;;;;;-145.63;100.00;61273.97;4782992;30;20031;-67
2023/01/02 03:29:35;;;;;;;0.50;0.50;;;;;;;-145.63;100.00;61273.97;4774161;30;20042;-67
2023/01/02 03:32:07;;;;;;;0.60;0.60;;;;;;;-145.63;100.00;61273.97;4782697;30;20103;-67
2023/01/02 03:34:37;;;;;;;2.10;0.70;;;;;;;-145.63;100.00;61273.97;4782636;30;20035;-65
2023/01/02 03:37:14;;;;;;;0.90;0.70;;;;;;;-145.63;100.00;61273.97;4782609;30;20039;-66
2023/01/02 03:39:52;;;;;;;1.70;0.73;;;;;;;-145.63;100.00;61273.97;4781414;30;20031;-67
2023/01/02 03:42:34;;;;;;;0.50;0.50;;;;;;;-145.63;100.00;61273.97;4782468;30;20040;-66
2023/01/02 03:45:14;;;;;;;1.90;0.90;;;;;;;-145.63;100.00;61273.97;4782196;30;20032;-67
2023/01/02 03:47:58;;;;;;;1.52;0.60;;;;;;;-145.63;100.00;61273.97;4764638;30;20081;-67
2023/01/02 03:50:33;;;;;;;1.55;0.60;;;;;;;-145.63;100.00;61273.97;4782128;30;20052;-66
2023/01/02 03:52:59;;;;;;;1.38;0.50;;;;;;;-145.63;100.00;61273.97;4784120;30;20099;-67
2023/01/02 03:55:28;;;;;;;0.70;0.70;;;;;;;-145.63;100.00;61273.97;4782059;30;20338;-67
2023/01/02 03:58:43;;;;;;;0.60;0.50;;;;;;;-145.63;100.00;61273.97;4782242;30;20047;-67
2023/01/02 04:01:15;;;;;;;1.08;0.80;;;;;;;-145.63;100.00;61273.97;4726886;30;20104;-66
2023/01/02 04:03:48;;;;;;;1.13;0.70;;;;;;;-145.63;100.00;61273.97;4727525;30;20060;-67
2023/01/02 04:06:19;;;;;;;1.02;0.60;;;;;;;-145.63;100.00;61273.97;4726781;30;20041;-66
2023/01/02 04:08:55;;;;;;;0.80;0.80;;;;;;;-145.63;100.00;61273.97;4727320;30;20108;-67
2023/01/02 04:11:25;;;;;;;1.65;0.60;;;;;;;-145.63;100.00;61273.97;4727407;30;20037;-66
2023/01/02 04:13:57;;;;;;;1.35;0.50;;;;;;;-145.63;100.00;61273.97;4727357;30;20044;-66
2023/01/02 04:16:29;;;;;;;0.70;0.70;;;;;;;-145.63;100.00;61273.97;4718961;30;20229;-66
2023/01/02 04:19:04;;;;;;;1.38;0.52;;;;;;;-145.63;100.00;61273.97;4738384;30;20361;-66
2023/01/02 04:21:36;;;;;;;1.48;0.50;;;;;;;-145.63;100.00;61273.97;4727348;30;20048;-67
2023/01/02 04:24:06;;;;;;;1.88;0.70;;;;;;;-145.63;100.00;61273.97;4712490;30;20060;-68
2023/01/02 04:26:38;;;;;;;0.47;0.47;;;;;;;-145.63;100.00;61273.97;4695420;30;20046;-67
2023/01/02 04:29:04;;;;;;;1.00;0.50;;;;;;;-145.63;100.00;61273.97;4723862;30;20043;-68
2023/01/02 04:32:00;;;;;;;2.47;0.93;;;;;;;-145.63;100.00;61273.97;4745864;30;20048;-67
2023/01/02 04:34:30;;;;;;;0.77;0.70;;;;;;;-145.63;100.00;61273.97;4781463;30;20181;-67
2023/01/02 04:36:56;;;;;;;0.55;0.55;;;;;;;-145.63;100.00;61273.97;4780346;30;20042;-67
2023/01/02 04:39:23;;;;;;;1.77;0.70;;;;;;;-145.63;100.00;61273.97;4781658;30;20043;-67
2023/01/02 04:41:49;;;;;;;0.88;0.60;;;;;;;-145.63;100.00;61273.97;4781600;30;20085;-66
2023/01/02 04:44:14;;;;;;;1.73;0.82;;;;;;;-145.63;100.00;61273.97;4781224;30;20028;-68
2023/01/02 04:46:40;;;;;;;1.30;0.85;;;;;;;-145.63;100.00;61273.97;4781209;30;20040;-67
2023/01/02 04:49:05;;;;;;;2.13;0.80;;;;;;;-145.63;100.00;61273.97;4777714;30;20047;-67
2023/01/02 04:51:31;;;;;;;0.95;0.82;;;;;;;-145.63;100.00;61273.97;4781109;30;20081;-67
2023/01/02 04:53:56;;;;;;;0.60;0.60;;;;;;;-145.63;100.00;61273.97;4790877;30;20107;-67
2023/01/02 04:56:22;;;;;;;3.15;0.90;;;;;;;-145.63;100.00;61273.97;4798942;29;20035;-67
2023/01/02 04:58:48;;;;;;;0.75;0.70;;;;;;;-145.63;100.00;61273.97;4784192;29;20028;-68
2023/01/02 05:01:17;;;;;;;1.98;1.23;;;;;;;-145.63;100.00;61273.97;4779860;30;20036;-67
2023/01/02 05:03:46;;;;;;;1.90;0.77;;;;;;;-145.63;100.00;61273.97;4776630;30;20036;-68
2023/01/02 05:06:12;;;;;;;1.27;0.60;;;;;;;-145.63;100.00;61273.97;4776566;30;20347;-68
2023/01/02 05:08:38;;;;;;;1.50;1.02;;;;;;;-145.63;100.00;61273.97;4775451;30;20100;-67
2023/01/02 05:11:05;;;;;;;1.55;0.77;;;;;;;-145.63;100.00;61273.97;4780738;30;20058;-68
2023/01/02 05:13:30;;;;;;;1.60;0.60;;;;;;;-145.63;100.00;61273.97;4781003;30;20092;-69
2023/01/02 05:15:56;;;;;;;1.80;0.75;;;;;;;-145.63;100.00;61273.97;4781072;30;20031;-66
2023/01/02 05:18:22;;;;;;;2.15;0.80;;;;;;;-145.63;100.00;61273.97;4780770;30;20027;-68
2023/01/02 05:20:47;;;;;;;1.05;0.60;;;;;;;-145.63;100.00;61273.97;4781043;30;20339;-68
2023/01/02 05:25:57;;;;;;;1.20;0.80;;;;;;;-145.63;100.00;61273.97;4785031;29;20080;-67
2023/01/02 05:28:22;;;;;;;1.48;0.73;;;;;;;-145.63;100.00;61273.97;4779574;30;20035;-67
2023/01/02 05:30:48;;;;;;;2.17;0.90;;;;;;;-145.63;100.00;61273.97;4779811;30;20043;-67
2023/01/02 05:33:14;;;;;;;2.80;1.10;;;;;;;-145.63;100.00;61273.97;4780547;30;20051;-66
2023/01/02 05:35:39;;;;;;;1.80;1.05;;;;;;;-145.63;100.00;61273.97;4780700;30;20039;-66
2023/01/02 05:38:05;;;;;;;0.73;0.65;;;;;;;-145.63;100.00;61273.97;4780263;30;20032;-66
2023/01/02 05:40:31;;;;;;;2.70;0.77;;;;;;;-145.63;100.00;61273.97;4780483;30;20047;-67
2023/01/02 05:42:57;;;;;;;1.85;0.63;;;;;;;-145.63;100.00;61273.97;4780772;30;20035;-67
2023/01/02 05:45:23;;;;;;;2.28;1.15;;;;;;;-145.63;100.00;61273.97;4780574;30;20039;-66
2023/01/02 05:47:49;;;;;;;2.63;0.90;;;;;;;-145.63;100.00;61273.97;4780587;30;20035;-66
2023/01/02 05:50:14;;;;;;;2.58;1.00;;;;;;;-145.63;100.00;61273.97;4780078;30;20051;-66
2023/01/02 05:52:40;;;;;;;1.15;0.70;;;;;;;-145.63;100.00;61273.97;4780826;30;20076;-66
2023/01/02 05:55:06;;;;;;;1.42;0.90;;;;;;;-145.63;100.00;61273.97;4798088;29;20031;-66
2023/01/02 05:57:32;;;;;;;1.65;0.85;;;;;;;-145.63;100.00;61273.97;4795677;29;20040;-67
2023/01/02 05:59:57;;;;;;;1.83;1.00;;;;;;;-145.63;100.00;61273.97;4780247;30;20027;-67
2023/01/02 06:02:23;;;;;;;3.85;1.00;;;;;;;-145.63;100.00;61273.97;4780185;30;20261;-66
2023/01/02 06:04:48;;;;;;;3.67;1.00;;;;;;;-145.63;100.00;61273.97;4780140;30;20031;-67
2023/01/02 06:07:14;;;;;;;1.35;0.60;;;;;;;-145.63;100.00;61273.97;4780083;30;20042;-67
2023/01/02 06:09:39;;;;;;;1.50;0.65;;;;;;;-145.63;100.00;61273.97;4780322;30;20063;-67
2023/01/02 06:12:05;;;;;;;1.35;0.70;;;;;;;-145.63;100.00;61273.97;4780213;30;20044;-66
2023/01/02 06:14:30;;;;;;;2.40;0.60;;;;;;;-145.63;100.00;61273.97;4780225;30;20146;-66
2023/01/02 06:16:56;;;;;;;1.17;0.85;;;;;;;-145.63;100.00;61273.97;4780202;30;20280;-66
2023/01/02 06:19:21;;;;;;;1.10;0.63;;;;;;;-145.63;100.00;61273.97;4779871;30;20043;-66
2023/01/02 06:21:47;;;;;;;2.35;0.90;;;;;;;-145.63;100.00;61273.97;4780488;30;20054;-67
2023/01/02 06:24:12;;;;;;;0.82;0.70;;;;;;;-145.63;100.00;61273.97;4797934;29;20031;-67
2023/01/02 06:26:38;;;;;;;2.47;0.80;;;;;;;-145.63;100.00;61273.97;4780184;30;20039;-66
2023/01/02 06:29:03;;;;;;;3.85;0.93;;;;;;;-145.63;100.00;61273.97;4779774;30;20345;-67
2023/01/02 06:31:32;;;;;;;2.13;0.65;;;;;;;-145.63;100.00;61273.97;4779729;30;20326;-66
2023/01/02 06:33:59;;;;;;;1.95;0.80;;;;;;;-145.63;100.00;61273.97;4780354;30;20102;-66
2023/01/02 06:36:29;;;;;;;0.93;0.82;;;;;;;-145.63;100.00;61273.97;4783232;30;20312;-66
2023/01/02 06:38:55;;;;;;;2.28;1.00;;;;;;;-145.63;100.00;61273.97;4765783;30;20099;-67
2023/01/02 06:41:20;;;;;;;1.90;0.90;;;;;;;-145.63;100.00;61273.97;4781186;30;20035;-67
2023/01/02 06:43:48;;;;;;;2.05;0.90;;;;;;;-145.63;100.00;61273.97;4783364;30;20040;-68
2023/01/02 06:46:16;;;;;;;1.17;0.80;;;;;;;-145.63;100.00;61273.97;4783376;30;20040;-68
2023/01/02 06:48:42;;;;;;;3.20;0.90;;;;;;;-145.63;100.00;61273.97;4783773;30;20243;-66
2023/01/02 06:51:16;;;;;;;1.95;0.85;;;;;;;-145.63;100.00;61273.97;4783492;30;20059;-66
2023/01/02 06:53:43;;;;;;;2.00;0.90;;;;;;;-145.63;100.00;61273.97;4782543;30;20071;-67
2023/01/02 06:56:14;;;;;;;3.22;1.10;;;;;;;-145.63;100.00;61273.97;4800963;29;20038;-67
2023/01/02 06:58:39;;;;;;;2.67;0.80;;;;;;;-145.63;100.00;61273.97;4790939;29;20039;-67
2023/01/02 07:01:17;;;;;;;3.35;1.10;;;;;;;-145.63;100.00;61273.97;4783185;30;20039;-67
2023/01/02 07:03:43;;;;;;;2.78;1.00;;;;;;;-145.63;100.00;61273.97;4783223;30;20032;-67
2023/01/02 07:06:13;;;;;;;1.35;0.90;;;;;;;-145.63;100.00;61273.97;4782957;30;20158;-67
2023/01/02 07:08:39;;;;;;;2.90;0.80;;;;;;;-145.63;100.00;61273.97;4777315;30;20059;-68
2023/01/02 07:11:25;;;;;;;7.60;1.35;;;;;;;-145.63;100.00;61273.97;4782946;30;20111;-67
2023/01/02 07:13:53;;;;;;;0.93;0.88;;;;;;;-145.63;100.00;61273.97;4782701;30;20273;-69
2023/01/02 07:16:20;;;;;;;2.25;0.93;;;;;;;-145.63;100.00;61273.97;4782694;30;20039;-68
2023/01/02 07:18:46;;;;;;;5.55;1.17;;;;;;;-145.63;100.00;61273.97;4781603;30;20231;-68
2023/01/02 07:21:13;;;;;;;2.17;0.90;;;;;;;-145.63;100.00;61273.97;4774710;30;20039;-68
2023/01/02 07:23:40;;;;;;;2.03;1.10;;;;;;;-145.63;100.00;61273.97;4796602;30;20039;-67
2023/01/02 07:26:06;;;;;;;2.10;1.33;;;;;;;-145.63;100.00;61273.97;4786760;29;20074;-68
2023/01/02 07:28:33;;;;;;;3.22;1.05;;;;;;;-145.63;100.00;61273.97;4782622;30;20031;-68
2023/01/02 07:31:01;;;;;;;1.13;0.75;;;;;;;-145.63;100.00;61273.97;4782521;30;20103;-69
2023/01/02 07:33:28;;;;;;;1.58;0.90;;;;;;;-145.63;100.00;61273.97;4782814;30;20036;-68
2023/01/02 07:36:06;;;;;;;2.72;0.77;;;;;;;-145.63;100.00;61273.97;4782856;30;20038;-69
2023/01/02 07:38:31;;;;;;;1.63;0.70;;;;;;;-145.63;100.00;61273.97;4781233;30;20327;-68
2023/01/02 07:40:57;;;;;;;3.88;0.90;;;;;;;-145.63;100.00;61273.97;4782651;30;20044;-69
2023/01/02 07:43:23;;;;;;;2.05;0.80;;;;;;;-145.63;100.00;61273.97;4777276;30;20105;-69
2023/01/02 07:45:49;;;;;;;1.08;0.85;;;;;;;-145.63;100.00;61273.97;4777300;30;20099;-68
2023/01/02 07:48:15;;;;;;;3.30;1.17;;;;;;;-145.63;100.00;61273.97;4782431;30;20270;-68
2023/01/02 07:50:40;;;;;;;2.40;0.88;;;;;;;-145.63;100.00;61273.97;4782338;30;20043;-69
2023/01/02 07:53:06;;;;;;;1.40;0.90;;;;;;;-145.63;100.00;61273.97;4785948;30;20133;-69
2023/01/02 07:55:32;;;;;;;1.63;0.80;;;;;;;-145.63;100.00;61273.97;4800432;29;20094;-68
2023/01/02 07:57:57;;;;;;;3.53;1.10;;;;;;;-145.63;100.00;61273.97;4795423;29;20379;-69
2023/01/02 08:00:23;;;;;;;1.73;0.90;;;;;;;-145.63;100.00;61273.97;4782074;30;20040;-68
2023/01/02 08:02:51;;;;;;;3.17;1.20;;;;;;;-145.63;100.00;61273.97;4782152;30;20252;-69
2023/01/02 08:05:17;;;;;;;3.38;0.95;;;;;;;-145.63;100.00;61273.97;4781933;30;20036;-68
2023/01/02 08:07:43;;;;;;;1.33;0.90;;;;;;;-145.63;100.00;61273.97;4782306;30;20036;-68
2023/01/02 08:12:58;;;;;;;2.05;0.90;;;;;;;-145.63;100.00;61273.97;4783533;30;20055;-68
2023/01/02 08:15:24;;;;;;;2.38;0.82;;;;;;;-145.63;100.00;61273.97;4781771;30;20393;-69
2023/01/02 08:17:50;;;;;;;2.40;1.13;;;;;;;-145.63;100.00;61273.97;4782013;30;20043;-67
2023/01/02 08:20:16;;;;;;;2.45;1.02;;;;;;;-145.63;100.00;61273.97;4781859;30;20036;-68
2023/01/02 08:23:02;;;;;;;2.47;0.95;;;;;;;-145.63;100.00;61273.97;4789019;30;20347;-67
2023/01/02 08:25:28;;;;;;;1.52;0.70;;;;;;;-145.63;100.00;61273.97;4791430;29;20032;-68
2023/01/02 08:27:53;;;;;;;2.25;1.08;;;;;;;-145.63;100.00;61273.97;4781734;30;20356;-66
2023/01/02 08:30:19;;;;;;;4.13;1.08;;;;;;;-145.63;100.00;61273.97;4781670;30;20063;-67
2023/01/02 08:32:44;;;;;;;4.03;0.85;;;;;;;-145.63;100.00;61273.97;4781674;30;20047;-67
2023/01/02 08:35:10;;;;;;;2.95;1.13;;;;;;;-145.63;100.00;61273.97;4781750;30;20031;-67
2023/01/02 08:37:36;;;;;;;4.65;0.85;;;;;;;-145.63;100.00;61273.97;4781684;30;20104;-69
2023/01/02 08:40:01;;;;;;;2.53;1.77;;;;;;;-145.63;100.00;61273.97;4781077;30;20231;-68
2023/01/02 08:42:28;;;;;;;2.95;2.03;;;;;;;-145.63;100.00;61273.97;4781806;30;20342;-68
2023/01/02 08:44:53;;;;;;;1.67;1.00;;;;;;;-145.63;100.00;61273.97;4781405;30;20028;-69
2023/01/02 08:47:19;;;;;;;4.10;1.10;;;;;;;-145.63;100.00;61273.97;4781133;30;20031;-68
2023/01/02 08:49:44;;;;;;;2.70;1.75;;;;;;;-145.63;100.00;61273.97;4781183;30;20177;-68
2023/01/02 08:52:10;;;;;;;1.67;1.00;;;;;;;-145.63;100.00;61273.97;4781162;30;20354;-69
2023/01/02 08:54:36;;;;;;;1.88;0.80;;;;;;;-145.63;100.00;61273.97;4795915;30;20035;-69
2023/01/02 08:57:01;;;;;;;2.15;0.90;;;;;;;-145.63;100.00;61273.97;4798679;29;20098;-67
2023/01/02 08:59:27;;;;;;;1.42;1.02;;;;;;;-145.63;100.00;61273.97;4783210;29;20172;-69
2023/01/02 09:01:53;;;;;;;3.45;1.17;;;;;;;-145.63;100.00;61273.97;4781096;30;20098;-70
2023/01/02 09:04:19;;;;;;;3.72;2.30;;;;;;;-145.63;100.00;61273.97;4781051;30;20120;-69
2023/01/02 09:06:45;;;;;;;1.65;1.00;;;;;;;-145.63;100.00;61273.97;4781295;30;20370;-69
2023/01/02 09:09:13;;;;;;;1.30;1.10;;;;;;;-145.63;100.00;61273.97;4781105;30;20320;-68
2023/01/02 09:11:49;;;;;;;1.27;0.90;;;;;;;-145.63;100.00;61273.97;4781100;30;20099;-68
2023/01/02 09:14:16;;;;;;;1.35;1.05;;;;;;;-145.63;100.00;61273.97;4781263;30;20031;-68
2023/01/02 09:16:41;;;;;;;2.85;1.10;;;;;;;-145.63;100.00;61273.97;4780982;30;20070;-68
2023/01/02 09:19:07;;;;;;;1.77;1.00;;;;;;;-145.63;100.00;61273.97;4780596;30;20035;-67
2023/01/02 09:21:33;;;;;;;1.45;0.98;;;;;;;-145.63;100.00;61273.97;4780796;30;20042;-67
2023/01/02 09:23:59;;;;;;;2.15;0.88;;;;;;;-145.63;100.00;61273.97;4797251;30;20035;-68
2023/01/02 09:26:24;;;;;;;3.05;1.08;;;;;;;-145.63;100.00;61273.97;4783792;29;20043;-67
2023/01/02 09:28:50;;;;;;;1.58;0.77;;;;;;;-145.63;100.00;61273.97;4780847;30;20043;-68
2023/01/02 09:31:19;;;;;;;3.53;1.00;;;;;;;-145.63;100.00;61273.97;4780702;30;20040;-67
2023/01/02 09:33:46;;;;;;;1.92;1.08;;;;;;;-145.63;100.00;61273.97;4780677;30;20031;-68
2023/01/02 09:36:13;;;;;;;1.15;0.90;;;;;;;-145.63;100.00;61273.97;4781454;30;20092;-67
2023/01/02 09:38:39;;;;;;;4.00;1.10;;;;;;;-145.63;100.00;61273.97;4780553;30;20205;-70
2023/01/02 09:41:26;;;;;;;2.33;1.10;;;;;;;-145.63;100.00;61273.97;4780307;30;20085;-68
2023/01/02 09:44:17;;;;;;;1.25;0.95;;;;;;;-145.63;100.00;61273.97;4780100;30;20032;-69
2023/01/02 09:46:56;;;;;;;1.73;0.85;;;;;;;-145.63;100.00;61273.97;4780330;30;20370;-69
2023/01/02 09:49:29;;;;;;;2.58;1.17;;;;;;;-145.63;100.00;61273.97;4780274;30;20119;-68
2023/01/02 09:51:54;;;;;;;1.55;0.85;;;;;;;-145.63;100.00;61273.97;4780569;30;20043;-68
2023/01/02 09:54:32;;;;;;;1.45;0.90;;;;;;;-145.63;100.00;61273.97;4792813;30;20035;-67
2023/01/02 09:57:25;;;;;;;2.47;1.17;;;;;;;-145.63;100.00;61273.97;4798285;29;20035;-67
2023/01/02 10:00:16;;;;;;;1.85;0.90;;;;;;;-145.63;100.00;61273.97;4780453;29;20093;-68
2023/01/02 10:02:47;;;;;;;3.72;1.00;;;;;;;-145.63;100.00;61273.97;4780417;30;20058;-68
2023/01/02 10:05:40;;;;;;;1.85;1.20;;;;;;;-145.63;100.00;61273.97;4780086;30;20349;-67
2023/01/02 10:08:23;;;;;;;2.53;1.20;;;;;;;-145.63;100.00;61273.97;4780018;30;20051;-67
2023/01/02 10:11:03;;;;;;;3.40;1.10;;;;;;;-145.63;100.00;61273.97;4779961;30;20043;-69
2023/01/02 10:13:43;;;;;;;4.20;1.38;;;;;;;-145.63;100.00;61273.97;4780428;30;20036;-68
2023/01/02 10:16:17;;;;;;;2.33;0.95;;;;;;;-145.63;100.00;61273.97;4779865;30;20031;-67
2023/01/02 10:18:45;;;;;;;3.97;1.30;;;;;;;-145.63;100.00;61273.97;4780153;30;20062;-68
2023/01/02 10:21:17;;;;;;;2.58;1.20;;;;;;;-145.63;100.00;61273.97;4779932;30;20212;-68
2023/01/02 10:23:54;;;;;;;2.22;1.00;;;;;;;-145.63;100.00;61273.97;4794685;30;20046;-68
2023/01/02 10:26:23;;;;;;;2.65;1.20;;;;;;;-145.63;100.00;61273.97;4784047;29;20051;-68
2023/01/02 10:29:05;;;;;;;2.20;0.93;;;;;;;-145.63;100.00;61273.97;4779869;30;20036;-68
2023/01/02 10:31:37;;;;;;;2.30;1.15;;;;;;;-145.63;100.00;61273.97;4779958;30;20031;-67
2023/01/02 10:34:10;;;;;;;1.67;0.95;;;;;;;-145.63;100.00;61273.97;4779500;30;20023;-67
2023/01/02 10:36:40;;;;;;;1.15;0.90;;;;;;;-145.63;100.00;61273.97;4779862;30;20090;-68
2023/01/02 10:39:11;;;;;;;1.17;0.80;;;;;;;-145.63;100.00;61273.97;4779796;30;20349;-67
2023/01/02 10:41:38;;;;;;;1.08;0.88;;;;;;;-145.63;100.00;61273.97;4779733;30;20031;-68
2023/01/02 10:44:19;;;;;;;1.67;0.77;;;;;;;-145.63;100.00;61273.97;4779598;30;20028;-68
2023/01/02 10:46:45;;;;;;;2.13;0.90;;;;;;;-145.63;100.00;61273.97;4779863;30;20039;-68
2023/01/02 10:49:11;;;;;;;1.70;1.10;;;;;;;-145.63;100.00;61273.97;4779922;30;20055;-66
2023/01/02 10:51:44;;;;;;;2.75;1.10;;;;;;;-145.63;100.00;61273.97;4779557;30;20036;-67
2023/01/02 10:54:10;;;;;;;3.95;1.10;;;;;;;-145.63;100.00;61273.97;4790556;30;20346;-67
2023/01/02 10:56:38;;;;;;;1.85;1.35;;;;;;;-145.63;100.00;61273.97;4797625;30;20027;-67
2023/01/02 10:59:18;;;;;;;2.20;1.05;;;;;;;-145.63;100.00;61273.97;4785988;29;20028;-67
2023/01/02 11:01:55;;;;;;;3.30;1.13;;;;;;;-145.63;100.00;61273.97;4779865;30;20035;-67
2023/01/02 11:04:24;;;;;;;1.85;1.10;;;;;;;-145.63;100.00;61273.97;4779502;30;20035;-68
2023/01/02 11:06:51;;;;;;;3.78;1.08;;;;;;;-145.63;100.00;61273.97;4779451;30;20064;-68
2023/01/02 11:09:18;;;;;;;1.45;0.90;;;;;;;-145.63;100.00;61273.97;4778590;30;20258;-68
2023/01/02 11:11:53;;;;;;;2.85;0.75;;;;;;;-145.63;100.00;61273.97;4779440;30;20035;-68
2023/01/02 11:14:37;;;;;;;2.75;1.30;;;;;;;-145.63;100.00;61273.97;4779507;30;20043;-68
2023/01/02 11:17:05;;;;;;;1.30;1.00;;;;;;;-145.63;100.00;61273.97;4779335;30;20035;-68
2023/01/02 11:19:37;;;;;;;2.60;1.10;;;;;;;-145.63;100.00;61273.97;4779989;30;20274;-67
2023/01/02 11:22:03;;;;;;;2.42;0.80;;;;;;;-145.63;100.00;61273.97;4783904;30;20099;-68
2023/01/02 11:24:31;;;;;;;1.98;0.95;;;;;;;-145.63;100.00;61273.97;4800729;29;20058;-68
2023/01/02 11:27:01;;;;;;;2.85;1.10;;;;;;;-145.63;100.00;61273.97;4782970;29;20084;-67
2023/01/02 11:29:31;;;;;;;2.53;1.20;;;;;;;-145.63;100.00;61273.97;4782669;30;20035;-67